Time;durP1;ratioP1;P1;durP2;ratioP2;P2;SDS_P1;SDS_P2;PMS_P1;PMS_P2;Temp;Humidity;BMP_temperature;BMP_pressure;BME280_temperature;BME280_humidity;BME280_pressure;Samples;Min_cycle;Max_cycle;Signal;HPM_P1;HPM_P2
2021/12/19 00:00:13;;;;;;;86.93;54.97;;;17.60;63.00;;;;;;5037949;28;20559;-29
2021/12/19 00:03:00;;;;;;;82.40;52.55;;;17.60;63.10;;;;;;5037654;28;20061;-26
2021/12/19 00:10:55;;;;;;;80.32;49.90;;;17.60;63.10;;;;;;5037763;28;19916;-26
2021/12/19 00:13:24;;;;;;;80.68;50.90;;;17.50;63.20;;;;;;5037454;28;20021;-31
2021/12/19 00:15:50;;;;;;;71.95;46.13;;;17.50;63.10;;;;;;5047241;28;20053;-29
2021/12/19 00:18:15;;;;;;;78.75;49.35;;;17.50;63.00;;;;;;5048916;28;20101;-26
2021/12/19 00:20:41;;;;;;;80.38;51.75;;;17.60;62.90;;;;;;5036912;28;20363;-27
2021/12/19 00:23:06;;;;;;;79.18;48.72;;;17.60;62.90;;;;;;5036922;28;20091;-27
2021/12/19 00:25:32;;;;;;;72.97;45.72;;;17.60;62.90;;;;;;5037142;28;20068;-30
2021/12/19 00:27:57;;;;;;;71.63;45.63;;;17.50;62.90;;;;;;5037171;28;20029;-36
2021/12/19 00:30:23;;;;;;;72.13;45.95;;;17.60;62.80;;;;;;5036760;28;20509;-29
2021/12/19 00:32:48;;;;;;;70.78;45.15;;;17.60;62.80;;;;;;5038739;28;20021;-30
2021/12/19 00:35:14;;;;;;;71.80;44.40;;;17.50;62.70;;;;;;5056982;28;20409;-27
2021/12/19 00:37:40;;;;;;;68.93;44.58;;;17.50;62.80;;;;;;5056917;28;20051;-29
2021/12/19 00:40:06;;;;;;;68.15;43.28;;;17.50;62.80;;;;;;5057027;28;20396;-30
2021/12/19 00:42:35;;;;;;;67.28;42.35;;;17.50;62.80;;;;;;5039696;28;20021;-27
2021/12/19 00:45:13;;;;;;;71.57;43.45;;;17.50;62.80;;;;;;5037026;28;20040;-23
2021/12/19 00:47:38;;;;;;;64.40;41.13;;;17.50;62.80;;;;;;5036261;28;20076;-28
2021/12/19 00:50:04;;;;;;;61.80;40.28;;;17.50;62.70;;;;;;5036696;28;20049;-28
2021/12/19 00:52:30;;;;;;;65.00;41.25;;;17.50;62.80;;;;;;5035828;28;20018;-26
2021/12/19 00:54:55;;;;;;;64.63;41.42;;;17.50;62.80;;;;;;5032799;28;20596;-34
2021/12/19 00:57:21;;;;;;;61.05;40.55;;;17.50;62.80;;;;;;5022637;28;20108;-28
2021/12/19 00:59:47;;;;;;;63.05;40.30;;;17.40;62.80;;;;;;5036619;28;20029;-29
2021/12/19 01:02:12;;;;;;;58.17;38.60;;;17.40;62.80;;;;;;5030127;28;20104;-27
2021/12/19 01:04:38;;;;;;;58.33;38.00;;;17.40;62.90;;;;;;5036460;28;20501;-28
2021/12/19 01:07:03;;;;;;;57.22;37.17;;;17.50;62.70;;;;;;5036932;28;20025;-27
2021/12/19 01:09:30;;;;;;;56.83;37.28;;;17.40;62.70;;;;;;5035978;28;20025;-29
2021/12/19 01:11:56;;;;;;;56.28;36.45;;;17.40;62.70;;;;;;5036781;28;20033;-29
2021/12/19 01:14:22;;;;;;;55.42;36.13;;;17.40;62.80;;;;;;5036449;28;20029;-31
2021/12/19 01:16:47;;;;;;;51.17;34.85;;;17.40;63.00;;;;;;5042439;28;20026;-25
2021/12/19 01:19:13;;;;;;;54.63;36.22;;;17.40;62.80;;;;;;5036252;28;20076;-30
2021/12/19 01:21:39;;;;;;;52.45;34.15;;;17.30;62.90;;;;;;5036328;28;20080;-25
2021/12/19 01:24:04;;;;;;;54.10;35.35;;;17.40;62.80;;;;;;5036188;28;20022;-33
2021/12/19 01:26:30;;;;;;;50.05;34.05;;;17.40;62.80;;;;;;5036376;28;20100;-30
2021/12/19 01:28:56;;;;;;;49.55;33.15;;;17.30;62.90;;;;;;5036342;28;20025;-31
2021/12/19 01:31:21;;;;;;;47.85;31.52;;;17.30;62.80;;;;;;5035820;28;20018;-25
2021/12/19 01:33:47;;;;;;;49.53;32.47;;;17.30;62.80;;;;;;5047750;28;20081;-28
2021/12/19 01:36:12;;;;;;;44.85;31.23;;;17.30;62.90;;;;;;5055803;28;20664;-28
2021/12/19 01:38:39;;;;;;;48.22;32.30;;;17.30;63.00;;;;;;5054084;28;20112;-29
2021/12/19 01:41:04;;;;;;;45.40;30.45;;;17.30;63.00;;;;;;5035013;28;20392;-30
2021/12/19 01:43:31;;;;;;;41.47;28.83;;;17.30;63.00;;;;;;5035155;28;20030;-28
2021/12/19 01:45:57;;;;;;;45.58;31.35;;;17.30;63.00;;;;;;5035473;28;20112;-30
2021/12/19 01:48:23;;;;;;;41.38;28.42;;;17.30;62.90;;;;;;5068172;28;20068;-27
2021/12/19 01:50:48;;;;;;;46.00;30.15;;;17.30;62.90;;;;;;5035954;28;20049;-31
2021/12/19 01:53:14;;;;;;;43.33;29.42;;;17.30;63.00;;;;;;5035999;28;20481;-24
2021/12/19 01:55:40;;;;;;;42.88;28.98;;;17.30;62.90;;;;;;5035758;28;20053;-30
2021/12/19 01:58:06;;;;;;;38.78;26.98;;;17.30;63.00;;;;;;5035725;28;20175;-28
2021/12/19 02:00:45;;;;;;;41.97;28.05;;;17.30;63.80;;;;;;5036694;28;20059;-29
2021/12/19 02:03:11;;;;;;;38.95;26.95;;;17.20;62.90;;;;;;5039878;28;20474;-26
2021/12/19 02:05:36;;;;;;;41.83;27.50;;;17.30;62.90;;;;;;5040101;28;20043;-27
2021/12/19 02:08:03;;;;;;;39.03;26.42;;;17.20;63.00;;;;;;5039910;28;20033;-29
2021/12/19 02:10:30;;;;;;;39.03;26.42;;;17.30;63.00;;;;;;5039805;28;20021;-30
2021/12/19 02:12:56;;;;;;;36.10;25.38;;;17.20;62.90;;;;;;5038780;28;20052;-29
2021/12/19 02:15:23;;;;;;;36.80;26.02;;;17.20;63.30;;;;;;5041332;28;20049;-31
2021/12/19 02:17:50;;;;;;;39.60;26.88;;;17.20;62.90;;;;;;5039869;28;20081;-28
2021/12/19 02:20:16;;;;;;;37.22;26.10;;;17.30;62.80;;;;;;5039390;28;20030;-29
2021/12/19 02:22:42;;;;;;;35.10;24.48;;;17.30;62.80;;;;;;5039617;28;20367;-29
2021/12/19 02:25:08;;;;;;;35.83;25.33;;;17.20;62.80;;;;;;5039548;28;20403;-25
2021/12/19 02:27:34;;;;;;;33.85;24.92;;;17.20;62.90;;;;;;5039540;28;20378;-29
2021/12/19 02:30:00;;;;;;;36.95;25.58;;;17.20;62.80;;;;;;5038891;28;20175;-27
2021/12/19 02:32:28;;;;;;;37.67;24.30;;;17.20;63.10;;;;;;5040027;28;20030;-27
2021/12/19 02:34:56;;;;;;;35.05;25.13;;;17.20;62.90;;;;;;5057725;28;20091;-29
2021/12/19 02:48:10;;;;;;;32.58;22.90;;;17.20;62.90;;;;;;5039303;28;20105;-26
2021/12/19 02:50:36;;;;;;;31.25;22.23;;;17.10;63.00;;;;;;5037685;28;20099;-30
2021/12/19 02:53:02;;;;;;;28.55;20.92;;;17.10;63.20;;;;;;5035246;28;20025;-29
2021/12/19 02:55:27;;;;;;;27.27;20.20;;;17.10;63.10;;;;;;5027013;28;20041;-30
2021/12/19 02:57:53;;;;;;;30.45;21.63;;;17.20;63.00;;;;;;5028587;28;20058;-29
2021/12/19 03:00:23;;;;;;;29.27;20.88;;;17.10;63.00;;;;;;5021387;28;20129;-25
2021/12/19 03:02:48;;;;;;;29.52;20.27;;;17.10;63.00;;;;;;5032120;28;20554;-30
2021/12/19 03:05:14;;;;;;;28.23;20.40;;;17.10;63.10;;;;;;5038746;28;20060;-25
2021/12/19 03:07:42;;;;;;;25.70;18.77;;;17.10;63.00;;;;;;5038542;28;20118;-25
2021/12/19 03:18:12;;;;;;;27.13;18.90;;;17.10;63.00;;;;;;5039223;28;20078;-24
2021/12/19 03:20:39;;;;;;;25.48;17.90;;;17.00;64.00;;;;;;5038339;28;20026;-29
2021/12/19 03:23:05;;;;;;;22.55;16.95;;;17.00;63.10;;;;;;5038506;28;20021;-26
2021/12/19 03:25:31;;;;;;;21.42;16.35;;;17.10;63.00;;;;;;5038671;28;20021;-28
2021/12/19 03:27:57;;;;;;;24.30;18.17;;;17.00;63.10;;;;;;5038480;28;20036;-29
2021/12/19 03:30:23;;;;;;;22.88;17.15;;;17.00;63.20;;;;;;5037933;28;20033;-29
2021/12/19 03:32:48;;;;;;;23.17;16.40;;;17.00;63.20;;;;;;5042074;28;20055;-24
2021/12/19 03:35:14;;;;;;;23.33;16.65;;;17.00;63.10;;;;;;5058363;28;20055;-28
2021/12/19 03:37:41;;;;;;;23.60;16.83;;;17.00;63.00;;;;;;5036393;28;20026;-28
2021/12/19 03:40:09;;;;;;;22.80;17.00;;;17.00;62.80;;;;;;5020185;28;20029;-25
2021/12/19 03:42:45;;;;;;;19.63;15.23;;;17.00;62.90;;;;;;5021798;28;20033;-26
2021/12/19 03:45:16;;;;;;;22.92;17.25;;;17.00;63.00;;;;;;5038178;28;20497;-29
2021/12/19 03:47:41;;;;;;;20.77;15.23;;;17.00;63.00;;;;;;5032183;28;20402;-29
2021/12/19 03:50:08;;;;;;;20.90;15.68;;;17.00;63.00;;;;;;5036012;28;20050;-30
2021/12/19 03:52:34;;;;;;;20.17;15.30;;;17.00;63.00;;;;;;5034666;28;20018;-25
2021/12/19 03:55:00;;;;;;;20.33;15.52;;;17.00;63.10;;;;;;5037461;28;20497;-27
2021/12/19 03:57:25;;;;;;;19.30;15.75;;;17.00;63.00;;;;;;5037260;28;20510;-29
2021/12/19 03:59:51;;;;;;;18.13;13.75;;;16.90;63.00;;;;;;5037230;28;20372;-35
2021/12/19 04:02:29;;;;;;;19.92;14.98;;;16.90;63.00;;;;;;5037483;28;20017;-27
2021/12/19 04:04:56;;;;;;;19.20;14.27;;;16.90;62.90;;;;;;5027835;28;20029;-25
2021/12/19 04:07:22;;;;;;;20.15;14.63;;;16.90;63.00;;;;;;5027140;28;20045;-30
2021/12/19 04:09:47;;;;;;;17.85;13.77;;;17.00;62.90;;;;;;5026263;28;20481;-30
2021/12/19 04:12:13;;;;;;;18.95;14.32;;;17.00;63.10;;;;;;5028246;28;20017;-29
2021/12/19 04:14:39;;;;;;;18.10;13.93;;;17.00;62.80;;;;;;5026772;28;20014;-29
2021/12/19 04:17:04;;;;;;;16.85;13.50;;;17.00;62.80;;;;;;5038415;28;20091;-30
2021/12/19 04:19:30;;;;;;;16.88;13.38;;;17.00;62.70;;;;;;5036343;28;20021;-31
2021/12/19 04:21:56;;;;;;;15.73;12.48;;;17.00;62.70;;;;;;5032456;28;20057;-29
2021/12/19 04:24:22;;;;;;;16.90;13.43;;;17.00;62.80;;;;;;5028674;28;20065;-26
2021/12/19 04:26:47;;;;;;;15.63;12.38;;;16.90;62.80;;;;;;5027835;28;20580;-26
2021/12/19 04:29:13;;;;;;;17.00;12.95;;;17.00;62.80;;;;;;5037241;28;20021;-25
2021/12/19 04:31:40;;;;;;;17.13;13.18;;;17.00;62.80;;;;;;5037163;28;20025;-31
2021/12/19 04:34:05;;;;;;;16.60;12.77;;;16.90;62.80;;;;;;5051118;28;20025;-30
2021/12/19 04:36:36;;;;;;;15.20;12.07;;;16.90;62.80;;;;;;5057042;28;20107;-27
2021/12/19 05:03:34;;;;;;;13.23;11.07;;;16.90;62.80;;;;;;5033090;28;20433;-29
2021/12/19 05:06:16;;;;;;;14.80;11.32;;;16.90;62.80;;;;;;5036771;28;20029;-31
2021/12/19 05:14:14;;;;;;;13.18;10.98;;;16.80;62.70;;;;;;5036477;28;20037;-26
2021/12/19 05:16:43;;;;;;;14.05;11.68;;;16.80;62.80;;;;;;5053089;28;20025;-27
2021/12/19 05:19:29;;;;;;;12.02;10.73;;;16.90;62.70;;;;;;5056270;28;20074;-28
2021/12/19 05:21:59;;;;;;;13.27;10.57;;;16.90;62.70;;;;;;5056308;28;20092;-29
2021/12/19 05:26:59;;;;;;;12.38;9.95;;;16.90;62.80;;;;;;5037077;28;20040;-24
2021/12/19 05:29:24;;;;;;;12.65;10.10;;;16.90;62.80;;;;;;5026387;28;20590;-26
2021/12/19 05:31:50;;;;;;;11.95;10.50;;;16.80;62.70;;;;;;5036283;28;20033;-25
2021/12/19 05:34:16;;;;;;;11.75;10.55;;;16.80;62.70;;;;;;5052054;28;20555;-30
2021/12/19 05:47:23;;;;;;;10.43;9.10;;;16.80;62.80;;;;;;5039957;28;20033;-26
2021/12/19 05:49:49;;;;;;;10.63;9.32;;;16.80;62.80;;;;;;5039386;28;20466;-23
2021/12/19 05:52:15;;;;;;;10.35;9.25;;;16.80;62.70;;;;;;5039770;28;20096;-26
2021/12/19 05:54:40;;;;;;;10.75;9.63;;;16.80;62.70;;;;;;5040426;28;20030;-27
2021/12/19 05:57:06;;;;;;;10.25;9.15;;;16.80;62.70;;;;;;5033835;28;20030;-25
2021/12/19 05:59:31;;;;;;;9.45;8.48;;;16.80;62.80;;;;;;5027074;28;20030;-27
2021/12/19 06:01:57;;;;;;;9.68;8.63;;;16.80;62.70;;;;;;5028559;28;20092;-27
2021/12/19 06:04:23;;;;;;;9.10;7.85;;;16.80;62.70;;;;;;5037821;28;20037;-26
2021/12/19 06:06:49;;;;;;;9.70;8.60;;;16.80;62.80;;;;;;5040062;28;20030;-26
2021/12/19 06:09:15;;;;;;;9.88;8.70;;;16.80;62.80;;;;;;5040289;28;20026;-31
2021/12/19 06:11:40;;;;;;;7.97;7.28;;;16.80;62.80;;;;;;5039849;28;20029;-23
2021/12/19 06:14:06;;;;;;;9.95;8.85;;;16.70;62.70;;;;;;5039969;28;20021;-25
2021/12/19 06:16:32;;;;;;;9.25;8.35;;;16.80;62.80;;;;;;5054786;28;20371;-25
2021/12/19 06:18:57;;;;;;;9.10;8.20;;;16.80;62.80;;;;;;5050932;28;20104;-26
2021/12/19 06:21:23;;;;;;;8.73;7.93;;;16.70;63.60;;;;;;5039431;28;20051;-29
2021/12/19 06:23:49;;;;;;;8.93;7.97;;;16.80;62.90;;;;;;5039680;28;20033;-28
2021/12/19 06:26:14;;;;;;;7.80;7.00;;;16.70;62.80;;;;;;5039729;28;20398;-28
2021/12/19 06:28:40;;;;;;;9.02;7.85;;;16.80;62.70;;;;;;5039730;28;20036;-24
2021/12/19 06:31:06;;;;;;;8.02;7.32;;;16.80;62.70;;;;;;5039458;28;20028;-24
2021/12/19 06:33:31;;;;;;;9.27;7.88;;;16.80;62.70;;;;;;5042916;28;20030;-31
2021/12/19 06:35:57;;;;;;;8.75;7.85;;;16.70;62.70;;;;;;5039214;28;20036;-25
2021/12/19 06:38:22;;;;;;;8.85;7.95;;;16.80;62.70;;;;;;5039098;28;20029;-28
2021/12/19 06:40:48;;;;;;;8.10;7.30;;;16.70;62.80;;;;;;5039337;28;20033;-26
2021/12/19 06:43:14;;;;;;;8.13;7.32;;;16.70;62.80;;;;;;5039273;28;20040;-30
2021/12/19 06:45:39;;;;;;;8.23;7.43;;;16.80;62.70;;;;;;5039456;28;20666;-29
2021/12/19 06:48:05;;;;;;;8.00;7.20;;;16.70;62.70;;;;;;5038802;28;20041;-28
2021/12/19 06:50:31;;;;;;;8.43;7.63;;;16.70;62.70;;;;;;5038931;28;20429;-26
2021/12/19 06:52:56;;;;;;;7.65;6.95;;;16.70;62.70;;;;;;5038686;28;20037;-25
2021/12/19 06:55:22;;;;;;;7.28;6.63;;;16.70;62.60;;;;;;5039268;28;20022;-33
2021/12/19 06:57:47;;;;;;;7.68;6.90;;;16.70;62.70;;;;;;5039163;28;20044;-23
2021/12/19 07:00:18;;;;;;;8.23;7.43;;;16.70;62.60;;;;;;5038792;28;20087;-29
2021/12/19 07:02:44;;;;;;;7.90;7.10;;;16.70;62.60;;;;;;5038684;28;20030;-27
2021/12/19 07:05:09;;;;;;;7.60;6.90;;;16.70;62.60;;;;;;5038954;28;20520;-28
2021/12/19 07:07:36;;;;;;;6.97;6.38;;;16.70;62.70;;;;;;5038380;28;20040;-29
2021/12/19 07:10:01;;;;;;;7.10;6.45;;;16.70;62.70;;;;;;5038851;28;20030;-23
2021/12/19 07:12:27;;;;;;;7.22;6.60;;;16.70;62.80;;;;;;5035925;28;20036;-26
2021/12/19 07:14:56;;;;;;;6.97;6.38;;;16.70;62.90;;;;;;5036929;28;20018;-25
2021/12/19 07:17:22;;;;;;;6.40;5.90;;;16.70;62.70;;;;;;5038165;28;20025;-25
2021/12/19 07:19:48;;;;;;;7.30;6.60;;;16.70;62.70;;;;;;5033988;28;20049;-27
2021/12/19 07:22:13;;;;;;;7.20;6.60;;;16.70;62.80;;;;;;5025608;28;20030;-25
2021/12/19 07:24:39;;;;;;;6.85;6.25;;;16.70;62.80;;;;;;5033393;28;20022;-26
2021/12/19 07:27:05;;;;;;;7.30;6.60;;;16.70;62.90;;;;;;5027579;28;20483;-25
2021/12/19 07:29:31;;;;;;;6.20;5.70;;;16.70;62.90;;;;;;5027908;28;20048;-32
2021/12/19 07:31:57;;;;;;;6.97;6.38;;;16.60;62.90;;;;;;5027638;28;20034;-26
2021/12/19 07:34:30;;;;;;;6.63;6.03;;;16.70;62.70;;;;;;5028887;28;20052;-29
2021/12/19 07:36:55;;;;;;;6.93;6.25;;;16.60;62.80;;;;;;5027669;28;20399;-27
2021/12/19 07:41:59;;;;;;;6.18;5.63;;;16.60;62.90;;;;;;5027916;28;20036;-27
2021/12/19 07:44:25;;;;;;;6.22;5.72;;;16.60;62.80;;;;;;5037113;28;20104;-24
2021/12/19 07:46:50;;;;;;;5.43;5.03;;;16.60;62.90;;;;;;5029880;28;20056;-28
2021/12/19 07:49:16;;;;;;;6.60;6.10;;;16.60;63.00;;;;;;5035508;28;20042;-24
2021/12/19 07:51:42;;;;;;;5.70;5.20;;;16.60;62.80;;;;;;5029079;28;20120;-34
2021/12/19 07:54:07;;;;;;;5.82;5.43;;;16.60;62.90;;;;;;5035665;28;20032;-28
2021/12/19 07:56:33;;;;;;;6.22;5.72;;;16.60;62.90;;;;;;5035841;28;20096;-34
2021/12/19 07:58:59;;;;;;;5.97;5.47;;;16.60;62.80;;;;;;5026212;28;20102;-27
2021/12/19 08:01:24;;;;;;;5.50;5.10;;;16.70;62.90;;;;;;5034038;28;20033;-29
2021/12/19 08:03:50;;;;;;;5.75;5.25;;;16.60;62.90;;;;;;5036944;28;20030;-29
2021/12/19 08:06:15;;;;;;;5.55;5.05;;;16.60;62.90;;;;;;5037127;28;20517;-34
2021/12/19 08:08:47;;;;;;;6.13;5.63;;;16.70;62.80;;;;;;5036968;28;20114;-31
2021/12/19 08:13:56;;;;;;;5.53;5.13;;;16.60;62.80;;;;;;5035750;28;20398;-28
2021/12/19 08:16:22;;;;;;;4.80;4.50;;;16.60;62.90;;;;;;5037547;28;20104;-27
2021/12/19 08:18:49;;;;;;;5.68;5.18;;;16.60;62.90;;;;;;5031562;28;20032;-27
2021/12/19 08:21:14;;;;;;;4.60;4.30;;;16.60;62.80;;;;;;5036937;28;20025;-26
2021/12/19 08:23:40;;;;;;;4.88;4.47;;;16.60;62.80;;;;;;5036871;28;20061;-32
2021/12/19 08:26:06;;;;;;;4.30;4.00;;;16.60;62.70;;;;;;5037047;28;20017;-28
2021/12/19 08:28:31;;;;;;;5.20;4.80;;;16.60;62.70;;;;;;5030596;28;20026;-37
2021/12/19 08:30:57;;;;;;;5.03;4.63;;;16.60;62.90;;;;;;5027374;28;20116;-28
2021/12/19 08:33:22;;;;;;;4.75;4.45;;;16.60;62.70;;;;;;5039164;28;20724;-27
2021/12/19 08:35:48;;;;;;;4.72;4.43;;;16.60;62.70;;;;;;5036714;28;20028;-27
2021/12/19 08:38:14;;;;;;;4.57;4.18;;;16.60;62.80;;;;;;5034582;28;20104;-28
2021/12/19 08:40:39;;;;;;;4.78;4.47;;;16.60;62.90;;;;;;5025022;28;20033;-26
2021/12/19 08:43:06;;;;;;;4.63;4.25;;;16.60;62.90;;;;;;5025436;28;20026;-28
2021/12/19 08:45:32;;;;;;;4.60;4.30;;;16.60;62.60;;;;;;5026534;28;20026;-30
2021/12/19 08:47:58;;;;;;;4.78;4.38;;;16.60;62.80;;;;;;5034435;28;20025;-29
2021/12/19 08:50:23;;;;;;;4.28;3.97;;;16.60;62.90;;;;;;5029428;28;20060;-37
2021/12/19 08:52:52;;;;;;;4.05;3.83;;;16.60;62.90;;;;;;5029018;28;20022;-24
2021/12/19 08:55:18;;;;;;;3.50;3.30;;;16.60;62.90;;;;;;5033899;28;20021;-29
2021/12/19 08:57:43;;;;;;;4.60;4.30;;;16.60;62.90;;;;;;5034684;28;20029;-31
2021/12/19 09:00:11;;;;;;;3.97;3.70;;;16.60;62.80;;;;;;5025478;28;20021;-30
2021/12/19 09:02:38;;;;;;;3.97;3.70;;;16.60;62.80;;;;;;5043720;28;20048;-29
2021/12/19 09:05:03;;;;;;;4.00;3.80;;;16.60;62.90;;;;;;5033302;28;20036;-31
2021/12/19 09:07:29;;;;;;;3.90;3.70;;;16.50;62.90;;;;;;5035928;28;20025;-30
2021/12/19 09:09:55;;;;;;;3.97;3.67;;;16.60;62.90;;;;;;5024687;28;20033;-25
2021/12/19 09:12:20;;;;;;;4.00;3.70;;;16.50;62.80;;;;;;5027313;28;20032;-26
2021/12/19 09:14:46;;;;;;;4.60;3.97;;;16.60;63.00;;;;;;4683584;28;10000254;-25
2021/12/19 09:17:11;;;;;;;3.47;3.28;;;16.60;63.00;;;;;;5026154;28;20047;-27
2021/12/19 09:19:37;;;;;;;3.70;3.50;;;16.60;62.80;;;;;;5031045;28;20052;-26
2021/12/19 09:22:03;;;;;;;3.72;3.45;;;16.60;62.60;;;;;;5035073;28;20718;-29
2021/12/19 09:24:29;;;;;;;5.53;4.53;;;16.60;62.60;;;;;;5031204;28;20044;-31
2021/12/19 09:26:54;;;;;;;4.88;4.53;;;16.60;62.60;;;;;;5031338;28;20068;-29
2021/12/19 09:29:20;;;;;;;4.80;4.40;;;16.60;62.60;;;;;;5038640;28;20490;-24
2021/12/19 09:31:45;;;;;;;7.85;4.00;;;16.60;62.60;;;;;;5035767;28;20140;-25
2021/12/19 09:34:11;;;;;;;4.25;3.95;;;16.60;62.70;;;;;;5036243;28;20045;-23
2021/12/19 09:36:37;;;;;;;4.45;4.15;;;16.60;63.00;;;;;;5029778;28;20081;-27
2021/12/19 09:39:03;;;;;;;5.25;4.75;;;16.70;63.30;;;;;;5026747;28;20045;-32
2021/12/19 09:41:31;;;;;;;6.57;5.90;;;16.60;64.00;;;;;;5030497;28;20057;-31
2021/12/19 09:43:58;;;;;;;6.47;5.95;;;16.60;64.70;;;;;;5025083;28;20057;-27
2021/12/19 09:46:28;;;;;;;7.60;6.35;;;16.60;65.00;;;;;;5026552;28;20136;-26
2021/12/19 09:48:53;;;;;;;7.07;5.38;;;16.60;65.20;;;;;;5031973;28;20060;-28
2021/12/19 09:51:19;;;;;;;6.95;6.25;;;16.60;65.00;;;;;;5046550;28;20549;-25
2021/12/19 09:53:45;;;;;;;6.70;5.93;;;16.60;64.90;;;;;;5046158;28;20904;-30
2021/12/19 09:56:11;;;;;;;5.97;5.47;;;16.60;64.80;;;;;;5049766;28;20666;-29
2021/12/19 09:58:37;;;;;;;5.63;5.13;;;16.70;64.60;;;;;;5047934;28;20051;-26
2021/12/19 10:01:04;;;;;;;5.13;4.72;;;16.70;64.40;;;;;;5049611;28;21884;-32
2021/12/19 10:03:30;;;;;;;5.15;4.65;;;16.70;64.10;;;;;;5047657;28;20045;-29
2021/12/19 10:06:19;;;;;;;5.30;4.68;;;16.80;64.10;;;;;;5045405;28;20047;-27
2021/12/19 10:08:46;;;;;;;4.90;4.50;;;16.80;64.00;;;;;;5027085;28;20053;-27
2021/12/19 10:11:32;;;;;;;5.15;4.75;;;16.80;63.80;;;;;;5026548;28;20135;-30
2021/12/19 10:13:57;;;;;;;5.15;4.75;;;16.90;63.70;;;;;;5024955;28;20045;-31
2021/12/19 10:16:28;;;;;;;5.15;4.75;;;16.80;63.70;;;;;;5023583;28;20060;-27
2021/12/19 10:18:54;;;;;;;5.75;5.25;;;16.90;63.60;;;;;;5032006;28;20129;-29
2021/12/19 10:21:20;;;;;;;7.60;6.90;;;16.80;63.50;;;;;;5026929;28;20056;-30
2021/12/19 10:23:46;;;;;;;5.90;5.40;;;16.80;63.30;;;;;;5031760;28;20053;-27
2021/12/19 10:26:11;;;;;;;6.65;6.00;;;16.90;63.60;;;;;;5036003;28;20049;-30
2021/12/19 10:28:58;;;;;;;8.00;7.15;;;16.90;63.30;;;;;;5037264;28;20102;-32
2021/12/19 10:31:28;;;;;;;7.25;6.50;;;16.90;63.10;;;;;;5018101;28;20059;-30
2021/12/19 10:33:54;;;;;;;8.68;6.53;;;16.90;63.20;;;;;;5025072;28;20128;-29
2021/12/19 10:36:20;;;;;;;6.53;5.88;;;16.90;63.20;;;;;;5020552;28;20057;-26
2021/12/19 10:38:50;;;;;;;7.28;6.32;;;16.90;63.10;;;;;;5032067;28;20751;-32
2021/12/19 10:41:18;;;;;;;7.93;6.53;;;16.90;63.20;;;;;;5030087;28;20065;-25
2021/12/19 10:43:57;;;;;;;9.13;6.85;;;16.90;63.40;;;;;;5033566;28;20055;-25
2021/12/19 10:46:30;;;;;;;7.35;6.57;;;16.90;63.00;;;;;;5033573;28;20642;-24
2021/12/19 10:48:56;;;;;;;8.32;6.85;;;16.90;62.90;;;;;;5026218;28;20115;-30
2021/12/19 10:51:21;;;;;;;11.55;7.05;;;17.00;62.90;;;;;;5018758;28;20049;-30
2021/12/19 10:53:49;;;;;;;7.47;6.40;;;17.00;62.60;;;;;;5020149;28;20056;-29
2021/12/19 10:56:15;;;;;;;7.95;7.15;;;17.00;63.00;;;;;;5017006;28;20552;-34
2021/12/19 10:58:47;;;;;;;9.15;7.15;;;17.00;62.80;;;;;;5019165;28;20064;-27
2021/12/19 11:01:30;;;;;;;8.88;6.95;;;17.00;62.80;;;;;;5020107;28;20064;-29
2021/12/19 11:04:15;;;;;;;6.20;5.65;;;17.00;62.70;;;;;;5031162;28;20099;-28
2021/12/19 11:06:47;;;;;;;6.38;5.78;;;17.10;62.70;;;;;;5029526;28;20075;-27
2021/12/19 11:09:14;;;;;;;6.47;5.72;;;17.10;62.70;;;;;;5039683;28;20049;-28
2021/12/19 11:12:14;;;;;;;6.30;5.70;;;17.10;62.30;;;;;;5037571;28;20514;-31
2021/12/19 11:14:44;;;;;;;6.78;5.57;;;17.10;62.20;;;;;;4935756;28;20051;-26
2021/12/19 11:17:23;;;;;;;6.80;5.88;;;17.20;63.00;;;;;;5011118;28;20106;-28
2021/12/19 11:19:49;;;;;;;5.82;5.32;;;17.20;62.20;;;;;;5028400;28;20077;-27
2021/12/19 11:22:23;;;;;;;5.82;5.22;;;17.20;62.10;;;;;;5019610;28;20071;-28
2021/12/19 11:24:57;;;;;;;6.25;5.50;;;17.20;62.20;;;;;;5019216;28;20056;-27
2021/12/19 11:27:22;;;;;;;8.48;6.72;;;17.20;62.20;;;;;;5019629;28;20081;-26
2021/12/19 11:29:50;;;;;;;6.32;5.72;;;17.20;62.10;;;;;;5013823;28;20650;-26
2021/12/19 11:32:19;;;;;;;5.60;5.10;;;17.20;61.80;;;;;;5022321;28;20087;-27
2021/12/19 11:34:58;;;;;;;6.90;6.00;;;17.20;61.80;;;;;;5015221;28;20048;-32
2021/12/19 11:37:39;;;;;;;5.55;5.03;;;17.20;61.70;;;;;;5021219;28;20469;-28
2021/12/19 11:40:06;;;;;;;5.68;5.18;;;17.20;61.60;;;;;;5031056;28;20041;-26
2021/12/19 11:42:41;;;;;;;6.28;5.68;;;17.30;61.50;;;;;;5018256;28;20095;-26
2021/12/19 11:45:29;;;;;;;6.38;5.78;;;17.20;61.20;;;;;;5016121;28;20053;-25
2021/12/19 11:48:01;;;;;;;6.35;5.80;;;17.30;61.20;;;;;;5032120;28;20095;-30
2021/12/19 11:50:29;;;;;;;6.40;5.85;;;17.20;61.20;;;;;;5028951;28;20052;-25
2021/12/19 11:52:56;;;;;;;7.43;6.63;;;17.30;61.40;;;;;;5019141;28;20045;-25
2021/12/19 11:55:22;;;;;;;8.48;6.32;;;17.20;61.50;;;;;;5018988;28;20045;-29
2021/12/19 11:58:06;;;;;;;7.47;6.78;;;17.20;61.40;;;;;;5032019;28;20053;-24
2021/12/19 12:00:34;;;;;;;7.82;6.75;;;17.20;61.70;;;;;;5034972;28;20053;-27
2021/12/19 12:03:11;;;;;;;6.80;6.20;;;17.30;61.90;;;;;;5028189;28;20049;-31
2021/12/19 12:06:04;;;;;;;6.82;6.13;;;17.30;62.10;;;;;;5016777;28;20057;-25
2021/12/19 12:08:30;;;;;;;7.75;6.15;;;17.30;61.90;;;;;;5001578;28;20529;-33
2021/12/19 12:10:57;;;;;;;7.28;5.78;;;17.30;61.60;;;;;;5024123;28;20128;-25
2021/12/19 12:13:24;;;;;;;7.60;6.40;;;17.30;61.70;;;;;;5026783;28;20059;-30
2021/12/19 12:15:52;;;;;;;7.03;5.80;;;17.30;61.60;;;;;;5025300;28;20099;-24
2021/12/19 12:18:31;;;;;;;5.95;5.28;;;17.30;61.70;;;;;;5024838;28;20063;-26
2021/12/19 12:20:57;;;;;;;5.70;5.22;;;17.30;61.60;;;;;;5018919;28;20041;-24
2021/12/19 12:23:26;;;;;;;6.47;5.90;;;17.30;61.90;;;;;;5009818;28;20053;-27
2021/12/19 12:25:51;;;;;;;6.50;5.80;;;17.30;61.70;;;;;;5024604;28;20049;-23
2021/12/19 12:28:18;;;;;;;5.57;5.07;;;17.30;61.80;;;;;;5019312;28;20049;-29
2021/12/19 12:30:46;;;;;;;5.78;5.22;;;17.30;61.80;;;;;;5034752;28;21100;-29
2021/12/19 12:33:16;;;;;;;5.30;4.90;;;17.30;62.00;;;;;;5027120;28;20140;-30
2021/12/19 12:35:43;;;;;;;5.38;4.95;;;17.30;61.80;;;;;;5035378;28;20052;-34
2021/12/19 12:38:10;;;;;;;5.93;5.43;;;17.40;61.60;;;;;;5023592;28;20168;-27
2021/12/19 12:43:12;;;;;;;5.88;5.35;;;17.40;61.80;;;;;;5023823;28;20052;-27
2021/12/19 12:45:48;;;;;;;5.57;5.07;;;17.40;61.80;;;;;;5030390;28;20514;-32
2021/12/19 12:48:28;;;;;;;5.68;5.28;;;17.40;61.50;;;;;;5029790;28;20053;-30
2021/12/19 12:50:54;;;;;;;5.63;5.22;;;17.40;61.40;;;;;;5037490;28;20433;-25
2021/12/19 12:53:39;;;;;;;5.97;5.03;;;17.50;61.30;;;;;;5039265;28;20045;-34
2021/12/19 12:56:11;;;;;;;5.72;5.22;;;17.50;61.60;;;;;;5048193;28;20049;-31
2021/12/19 12:58:38;;;;;;;5.50;5.00;;;17.40;61.60;;;;;;5038181;28;20095;-29
2021/12/19 13:01:22;;;;;;;5.55;5.13;;;17.40;61.70;;;;;;5031374;28;20544;-31
2021/12/19 13:03:55;;;;;;;5.28;4.85;;;17.40;61.70;;;;;;5049316;28;20053;-33
2021/12/19 13:06:39;;;;;;;5.18;4.78;;;17.40;61.60;;;;;;5049768;28;20049;-29
2021/12/19 13:09:12;;;;;;;6.30;4.85;;;17.40;61.80;;;;;;5051221;28;20126;-31
2021/12/19 13:11:38;;;;;;;5.03;4.63;;;17.40;61.90;;;;;;5050961;28;20049;-34
2021/12/19 13:14:21;;;;;;;5.28;4.88;;;17.40;61.90;;;;;;5051344;28;20540;-32
2021/12/19 13:16:50;;;;;;;4.40;4.10;;;17.40;62.00;;;;;;5027050;28;20046;-29
2021/12/19 13:19:38;;;;;;;4.15;3.85;;;17.30;62.80;;;;;;5027812;28;20060;-29
2021/12/19 13:22:05;;;;;;;4.78;4.47;;;17.30;62.00;;;;;;5038796;28;20046;-27
2021/12/19 13:24:34;;;;;;;5.03;4.57;;;17.40;62.00;;;;;;5038990;28;20159;-26
2021/12/19 13:27:09;;;;;;;5.47;4.30;;;17.30;62.10;;;;;;5031005;28;20706;-26
2021/12/19 13:29:35;;;;;;;4.75;4.35;;;17.30;62.10;;;;;;5028505;28;20041;-28
2021/12/19 13:32:24;;;;;;;4.88;4.47;;;17.40;62.10;;;;;;5023344;28;20049;-32
2021/12/19 13:34:49;;;;;;;4.30;4.00;;;17.40;62.10;;;;;;5029835;28;20092;-26
2021/12/19 13:37:15;;;;;;;4.75;4.43;;;17.40;62.10;;;;;;5023172;28;20065;-29
2021/12/19 13:39:42;;;;;;;4.50;4.20;;;17.40;62.10;;;;;;5013621;28;20095;-27
2021/12/19 13:42:12;;;;;;;3.78;3.58;;;17.40;62.00;;;;;;5027226;28;20056;-31
2021/12/19 13:44:39;;;;;;;4.32;4.03;;;17.40;62.00;;;;;;5031104;28;20046;-28
2021/12/19 13:47:21;;;;;;;3.90;3.70;;;17.40;62.10;;;;;;5025289;28;20602;-33
2021/12/19 13:49:47;;;;;;;4.22;3.92;;;17.40;62.00;;;;;;5016377;28;20053;-30
2021/12/19 13:52:12;;;;;;;3.75;3.45;;;17.40;62.10;;;;;;5029115;28;20128;-30
2021/12/19 13:54:40;;;;;;;4.43;4.13;;;17.50;62.00;;;;;;5028963;28;20140;-26
2021/12/19 13:57:19;;;;;;;3.88;3.58;;;17.40;62.10;;;;;;5032954;28;20042;-32